Time;durP1;ratioP1;P1;durP2;ratioP2;P2;SDS_P1;SDS_P2;PMS_P1;PMS_P2;Temp;Humidity;BMP_temperature;BMP_pressure;BME280_temperature;BME280_humidity;BME280_pressure;Samples;Min_cycle;Max_cycle;Signal;HPM_P1;HPM_P2
2024/01/01 00:01:58;;;;;;;4.07;1.85;;;;;;;;;;5016116;28;20128;-78
2024/01/01 00:04:26;;;;;;;4.85;1.58;;;;;;;;;;5029236;28;20294;-79
2024/01/01 00:06:52;;;;;;;6.45;2.20;;;;;;;;;;5028590;28;20021;-78
2024/01/01 00:09:18;;;;;;;8.98;2.38;;;;;;;;;;5026025;28;20040;-77
2024/01/01 00:11:44;;;;;;;3.78;1.45;;;;;;;;;;5023843;28;20033;-79
2024/01/01 00:14:11;;;;;;;3.05;1.27;;;;;;;;;;5019879;28;20034;-79
2024/01/01 00:16:38;;;;;;;5.75;2.15;;;;;;;;;;5026721;28;20538;-79
2024/01/01 00:19:05;;;;;;;4.47;1.83;;;;;;;;;;5022095;28;20032;-79
2024/01/01 00:21:32;;;;;;;5.00;1.75;;;;;;;;;;5025556;28;20045;-78
2024/01/01 00:23:58;;;;;;;5.35;2.10;;;;;;;;;;5023296;28;20043;-77
2024/01/01 00:26:24;;;;;;;3.75;1.33;;;;;;;;;;5020812;28;20029;-79
2024/01/01 00:28:50;;;;;;;7.00;2.72;;;;;;;;;;5022003;28;20088;-79
2024/01/01 00:31:16;;;;;;;4.95;1.75;;;;;;;;;;5022716;28;20104;-78
2024/01/01 00:33:43;;;;;;;7.00;1.88;;;;;;;;;;5026863;28;20032;-79
2024/01/01 00:36:09;;;;;;;5.38;2.40;;;;;;;;;;5029720;28;20108;-80
2024/01/01 00:38:35;;;;;;;3.28;2.03;;;;;;;;;;5018527;28;20040;-78
2024/01/01 00:41:00;;;;;;;8.38;1.98;;;;;;;;;;5057643;28;20030;-77
2024/01/01 00:43:26;;;;;;;6.03;2.35;;;;;;;;;;5021853;28;20041;-80
2024/01/01 00:45:54;;;;;;;5.03;2.85;;;;;;;;;;5044689;28;20039;-78
2024/01/01 00:48:20;;;;;;;7.35;2.30;;;;;;;;;;5024558;28;20033;-79
2024/01/01 00:50:46;;;;;;;10.70;3.63;;;;;;;;;;5026753;28;20488;-79
2024/01/01 00:53:12;;;;;;;7.22;3.30;;;;;;;;;;5024479;28;20033;-78
2024/01/01 00:55:38;;;;;;;7.00;3.53;;;;;;;;;;5025466;28;20052;-79
2024/01/01 00:58:06;;;;;;;5.70;2.65;;;;;;;;;;5020830;28;20030;-79
2024/01/01 01:00:32;;;;;;;12.50;3.60;;;;;;;;;;5025713;28;20084;-79
2024/01/01 01:02:58;;;;;;;10.70;3.50;;;;;;;;;;5025059;28;20042;-78
2024/01/01 01:05:24;;;;;;;8.35;3.40;;;;;;;;;;5026209;28;20092;-79
2024/01/01 01:07:50;;;;;;;7.78;3.88;;;;;;;;;;5037337;28;20028;-79
2024/01/01 01:10:16;;;;;;;8.10;4.05;;;;;;;;;;5019274;28;20037;-78
2024/01/01 01:12:42;;;;;;;11.60;3.90;;;;;;;;;;5021554;28;20026;-78
2024/01/01 01:15:08;;;;;;;16.48;4.88;;;6.10;99.90;;;;;;5019111;28;20024;-78
2024/01/01 01:17:35;;;;;;;11.13;4.15;;;;;;;;;;5024032;28;20026;-78
2024/01/01 01:20:02;;;;;;;9.52;3.97;;;;;;;;;;5026924;28;20483;-79
2024/01/01 01:22:28;;;;;;;13.45;4.70;;;;;;;;;;5025255;28;20060;-79
2024/01/01 01:24:54;;;;;;;9.77;4.22;;;;;;;;;;5053666;28;20049;-80
2024/01/01 01:27:19;;;;;;;16.55;5.78;;;;;;;;;;5020017;28;20046;-78
2024/01/01 01:29:45;;;;;;;10.00;3.95;;;;;;;;;;5031896;28;20038;-78
2024/01/01 01:32:11;;;;;;;11.48;4.90;;;;;;;;;;5024231;28;20124;-80
2024/01/01 01:34:37;;;;;;;13.18;5.07;;;;;;;;;;5022191;28;20025;-79
2024/01/01 01:37:04;;;;;;;19.55;5.65;;;;;;;;;;5024074;28;20052;-79
2024/01/01 01:39:30;;;;;;;12.23;5.88;;;;;;;;;;5023652;28;20033;-79
2024/01/01 01:41:56;;;;;;;12.57;4.47;;;;;;;;;;5025170;28;20041;-78
2024/01/01 01:44:22;;;;;;;16.20;5.13;;;;;;;;;;5022397;28;20495;-79
2024/01/01 01:46:48;;;;;;;15.13;4.55;;;;;;;;;;5024476;28;20116;-79
2024/01/01 01:49:14;;;;;;;8.60;4.90;;;;;;;;;;5024068;28;20572;-79
2024/01/01 01:51:40;;;;;;;12.23;5.47;;;;;;;;;;5025031;28;20090;-80
2024/01/01 01:54:06;;;;;;;14.07;5.78;;;;;;;;;;5020737;28;20481;-79
2024/01/01 01:56:32;;;;;;;15.80;5.63;;;;;;;;;;5028758;28;20188;-78
2024/01/01 01:58:59;;;;;;;12.40;6.20;;;;;;;;;;5025737;28;20029;-77
2024/01/01 02:01:29;;;;;;;12.43;4.65;;;;;;;;;;5027606;28;20083;-77
2024/01/01 02:03:55;;;;;;;15.48;6.03;;;;;;;;;;5020872;28;20021;-81
2024/01/01 02:06:21;;;;;;;11.20;5.82;;;;;;;;;;5025218;28;20032;-80
2024/01/01 02:08:47;;;;;;;12.32;4.60;;;;;;;;;;5026081;28;20042;-78
2024/01/01 02:11:13;;;;;;;17.65;6.90;;;;;;;;;;5024736;28;20034;-80
2024/01/01 02:13:39;;;;;;;14.65;5.57;;;;;;;;;;5022675;28;20132;-80
2024/01/01 02:16:05;;;;;;;9.95;5.00;;;;;;;;;;5054737;28;20022;-80
2024/01/01 02:18:31;;;;;;;12.93;5.53;;;;;;;;;;5021407;28;20476;-79
2024/01/01 02:20:58;;;;;;;12.10;5.47;;;;;;;;;;5051373;28;20057;-79
2024/01/01 02:23:25;;;;;;;13.65;5.63;;;;;;;;;;5018925;28;20042;-80
2024/01/01 02:25:51;;;;;;;21.98;4.70;;;;;;;;;;5040658;28;21033;-80
2024/01/01 02:28:17;;;;;;;11.30;5.70;;;;;;;;;;5020446;28;20076;-80
2024/01/01 02:30:43;;;;;;;10.30;5.47;;;;;;;;;;5023413;28;20032;-79
2024/01/01 02:33:10;;;;;;;14.80;5.43;;;;;;;;;;5020563;28;20026;-79
2024/01/01 02:35:36;;;;;;;6.70;3.53;;;;;;;;;;5022384;28;20052;-80
2024/01/01 02:38:04;;;;;;;12.15;5.45;;;;;;;;;;5013876;28;20139;-80
2024/01/01 02:40:32;;;;;;;12.48;5.47;;;;;;;;;;5026383;28;20072;-78
2024/01/01 02:43:00;;;;;;;17.15;5.53;;;;;;;;;;5021463;28;20409;-79
2024/01/01 02:45:27;;;;;;;15.85;5.97;;;;;;;;;;5021276;28;20243;-80
2024/01/01 02:47:53;;;;;;;16.77;4.55;;;;;;;;;;5016888;28;20030;-77
2024/01/01 02:50:20;;;;;;;9.77;4.25;;;;;;;;;;5018629;28;20045;-80
2024/01/01 02:52:46;;;;;;;12.43;6.05;;;;;;;;;;5030763;28;20029;-79
2024/01/01 02:55:12;;;;;;;9.23;4.10;;;;;;;;;;5025857;28;20080;-80
2024/01/01 02:57:38;;;;;;;9.00;4.38;;;;;;;;;;5021421;28;20120;-79
2024/01/01 03:00:09;;;;;;;16.55;5.18;;;;;;;;;;5020923;28;20121;-81
2024/01/01 03:02:35;;;;;;;9.20;4.68;;;;;;;;;;5021603;28;20064;-78
2024/01/01 03:05:01;;;;;;;8.98;3.92;;;;;;;;;;5021138;28;20107;-79
2024/01/01 03:07:27;;;;;;;13.00;4.00;;;;;;;;;;5025100;28;20483;-79
2024/01/01 03:09:53;;;;;;;10.82;4.80;;;;;;;;;;5021494;28;20172;-78
2024/01/01 03:12:19;;;;;;;10.50;4.30;;;;;;;;;;5024655;28;20041;-79
2024/01/01 03:14:45;;;;;;;11.30;4.28;;;;;;;;;;5017909;28;20030;-80
2024/01/01 03:17:11;;;;;;;15.60;4.22;;;;;;;;;;5023398;28;20026;-80
2024/01/01 03:19:37;;;;;;;10.02;4.80;;;;;;;;;;5018581;28;20022;-78
2024/01/01 03:22:03;;;;;;;12.27;3.47;;;;;;;;;;5016814;28;20034;-78
2024/01/01 03:24:29;;;;;;;8.75;3.47;;;;;;;;;;5009348;28;20061;-79
2024/01/01 03:26:55;;;;;;;10.45;3.90;;;;;;;;;;5018419;28;20508;-78
2024/01/01 03:29:21;;;;;;;11.20;4.55;;;;;;;;;;5019259;28;20507;-79
2024/01/01 03:31:46;;;;;;;15.05;3.63;;;;;;;;;;5024107;28;20461;-79
2024/01/01 03:34:12;;;;;;;8.48;3.47;;;;;;;;;;5016589;28;20037;-79
2024/01/01 03:36:39;;;;;;;4.60;2.95;;;;;;;;;;5025328;28;20316;-79
2024/01/01 03:39:05;;;;;;;7.20;2.60;;;;;;;;;;5055629;28;20411;-79
2024/01/01 03:41:31;;;;;;;9.90;3.00;;;;;;;;;;5026163;28;20461;-79
2024/01/01 03:43:57;;;;;;;5.80;2.47;;;;;;;;;;5028561;28;20056;-76
2024/01/01 03:46:23;;;;;;;9.93;3.13;;;;;;;;;;5027574;28;20056;-79
2024/01/01 03:48:49;;;;;;;6.82;2.88;;;;;;;;;;5028815;28;20022;-81
2024/01/01 03:51:15;;;;;;;8.32;2.97;;;;;;;;;;5023942;28;20084;-80
2024/01/01 03:53:41;;;;;;;10.23;2.78;;;;;;;;;;5027140;28;20483;-80
2024/01/01 03:56:07;;;;;;;5.28;2.42;;;;;;;;;;5028910;28;20361;-80
2024/01/01 03:58:33;;;;;;;10.80;2.45;;;;;;;;;;5023631;28;20036;-80
2024/01/01 04:00:59;;;;;;;5.25;2.13;;;;;;;;;;5027149;28;20550;-80
2024/01/01 04:03:25;;;;;;;7.82;3.13;;;;;;;;;;5020867;28;20029;-79
2024/01/01 04:05:51;;;;;;;8.85;2.40;;;;;;;;;;5022492;28;20036;-80
2024/01/01 04:08:17;;;;;;;11.00;2.92;;;;;;;;;;5017522;28;20044;-79
2024/01/01 04:10:43;;;;;;;6.25;2.45;;;5.40;99.90;;;;;;5030819;28;20033;-79
2024/01/01 04:13:09;;;;;;;7.13;2.42;;;;;;;;;;5026523;28;20061;-79
2024/01/01 04:15:35;;;;;;;6.90;2.50;;;;;;;;;;5025884;28;20037;-80
2024/01/01 04:18:01;;;;;;;6.65;2.75;;;;;;;;;;5025650;28;20021;-79
2024/01/01 04:20:27;;;;;;;6.75;2.90;;;;;;;;;;5021502;28;20033;-79
2024/01/01 04:22:53;;;;;;;6.55;3.40;;;;;;;;;;5022887;28;20046;-81
2024/01/01 04:25:22;;;;;;;6.38;2.40;;;;;;;;;;5053202;28;20109;-80
2024/01/01 04:27:48;;;;;;;5.10;2.22;;;;;;;;;;5028343;28;20033;-80
2024/01/01 04:30:14;;;;;;;4.40;1.52;;;;;;;;;;5020287;28;20033;-77
2024/01/01 04:32:41;;;;;;;5.07;1.38;;;;;;;;;;5024344;28;20032;-78
2024/01/01 04:35:07;;;;;;;3.55;1.40;;;;;;;;;;5022521;28;20487;-79
2024/01/01 04:37:33;;;;;;;7.00;1.95;;;;;;;;;;5026441;28;20021;-79
2024/01/01 04:39:59;;;;;;;2.95;1.35;;;;;;;;;;5020065;28;20037;-79
2024/01/01 04:42:25;;;;;;;6.63;1.65;;;;;;;;;;5025162;28;20039;-79
2024/01/01 04:44:52;;;;;;;10.02;1.95;;;;;;;;;;5020738;28;20180;-78
2024/01/01 04:47:18;;;;;;;4.78;1.67;;;;;;;;;;5024580;28;20037;-79
2024/01/01 04:49:44;;;;;;;10.02;2.30;;;;;;;;;;5023652;28;20038;-78
2024/01/01 04:52:10;;;;;;;8.52;1.75;;;;;;;;;;5028523;28;20100;-79
2024/01/01 04:54:36;;;;;;;4.75;1.48;;;;;;;;;;5027663;28;20534;-79
2024/01/01 04:57:02;;;;;;;5.00;1.80;;;;;;;;;;5024603;28;20033;-79
2024/01/01 04:59:28;;;;;;;4.22;1.65;;;;;;;;;;5055704;28;20037;-80
2024/01/01 05:01:54;;;;;;;6.32;1.63;;;;;;;;;;5025845;28;20115;-78
2024/01/01 05:04:20;;;;;;;4.88;1.83;;;;;;;;;;5021338;28;20395;-78
2024/01/01 05:06:46;;;;;;;7.85;1.63;;;;;;;;;;5023987;28;20036;-78
2024/01/01 05:09:12;;;;;;;2.72;1.27;;;;;;;;;;5024058;28;20033;-78
2024/01/01 05:11:41;;;;;;;4.75;1.30;;;;;;;;;;5024995;28;20369;-79
2024/01/01 05:14:08;;;;;;;4.20;1.27;;;;;;;;;;5024540;28;20108;-80
2024/01/01 05:16:34;;;;;;;2.90;1.30;;;;;;;;;;5020661;28;20105;-79
2024/01/01 05:19:01;;;;;;;4.57;1.00;;;;;;;;;;5022546;28;20032;-80
2024/01/01 05:21:27;;;;;;;2.85;0.98;;;;;;;;;;5022300;28;20037;-78
2024/01/01 05:23:54;;;;;;;7.22;1.08;;;;;;;;;;5014871;28;20362;-80
2024/01/01 05:26:20;;;;;;;4.70;0.82;;;;;;;;;;5026215;28;20022;-79
2024/01/01 05:28:46;;;;;;;9.63;1.67;;;;;;;;;;5021770;28;20084;-79
2024/01/01 05:31:18;;;;;;;9.05;1.50;;;;;;;;;;5019450;28;20045;-79
2024/01/01 05:33:44;;;;;;;6.18;1.08;;;;;;;;;;5026890;28;20026;-78
2024/01/01 05:36:13;;;;;;;3.58;1.63;;;;;;;;;;5026873;28;20110;-77
2024/01/01 05:38:39;;;;;;;3.63;1.50;;;;;;;;;;5025072;28;20026;-81
2024/01/01 05:41:07;;;;;;;3.33;0.93;;;;;;;;;;5025564;28;20515;-79
2024/01/01 05:43:33;;;;;;;2.53;0.90;;;;;;;;;;5027965;28;20032;-79
2024/01/01 05:45:59;;;;;;;2.17;1.15;;;;;;;;;;5022120;28;20051;-79
2024/01/01 05:48:25;;;;;;;5.00;1.13;;;;;;;;;;5023482;28;20499;-79
2024/01/01 05:50:52;;;;;;;11.73;1.45;;;;;;;;;;5024799;28;20053;-80
2024/01/01 05:53:18;;;;;;;1.75;1.02;;;;;;;;;;5023119;28;20030;-79
2024/01/01 05:55:44;;;;;;;3.20;1.65;;;;;;;;;;5028801;28;20458;-78
2024/01/01 05:58:11;;;;;;;1.73;0.82;;;;;;;;;;5018993;28;20032;-78
2024/01/01 06:00:38;;;;;;;3.72;1.13;;;;;;;;;;5023724;28;20013;-79
2024/01/01 06:03:05;;;;;;;3.75;1.20;;;;;;;;;;5028787;28;20079;-78
2024/01/01 06:05:33;;;;;;;5.85;1.20;;;;;;;;;;5028618;28;20211;-77
2024/01/01 06:08:03;;;;;;;3.15;1.10;;;;;;;;;;5022267;28;20417;-78
2024/01/01 06:10:31;;;;;;;3.55;1.30;;;;;;;;;;5029601;28;20033;-79
2024/01/01 06:12:58;;;;;;;7.82;1.92;;;;;;;;;;5005123;28;20071;-78
2024/01/01 06:15:29;;;;;;;4.38;1.73;;;;;;;;;;5018785;28;20123;-80
2024/01/01 06:17:56;;;;;;;9.25;1.27;;;;;;;;;;5036475;28;20033;-79
2024/01/01 06:20:21;;;;;;;6.82;1.58;;;;;;;;;;5023035;28;20021;-79
2024/01/01 06:22:48;;;;;;;4.60;1.42;;;;;;;;;;5022038;28;20029;-79
2024/01/01 06:25:14;;;;;;;2.58;1.25;;;;;;;;;;5023958;28;20033;-78
2024/01/01 06:27:40;;;;;;;5.55;1.23;;;;;;;;;;5021754;28;20037;-78
2024/01/01 06:30:06;;;;;;;3.15;1.35;;;;;;;;;;5022303;28;20057;-78
2024/01/01 06:32:32;;;;;;;1.83;0.93;;;;;;;;;;5020707;28;20108;-79
2024/01/01 06:34:58;;;;;;;4.28;1.80;;;;;;;;;;5058393;28;20014;-78
2024/01/01 06:37:24;;;;;;;2.90;1.05;;;;;;;;;;5023945;28;20500;-80
2024/01/01 06:39:50;;;;;;;2.05;0.95;;;;;;;;;;5024163;28;20076;-77
2024/01/01 06:42:17;;;;;;;6.25;1.85;;;;;;;;;;5024345;28;20491;-77
2024/01/01 06:44:43;;;;;;;3.03;1.58;;;;;;;;;;5025668;28;20434;-77
2024/01/01 06:47:09;;;;;;;2.97;1.00;;;;;;;;;;5027481;28;20087;-79
2024/01/01 06:49:35;;;;;;;2.33;0.70;;;;;;;;;;5018194;28;20120;-79
2024/01/01 06:52:03;;;;;;;5.95;0.85;;;;;;;;;;5026569;28;20414;-79
2024/01/01 06:54:29;;;;;;;8.75;1.15;;;;;;;;;;5015817;28;20396;-80
2024/01/01 06:56:55;;;;;;;6.30;0.77;;;;;;;;;;5024904;28;20030;-79
2024/01/01 06:59:26;;;;;;;1.73;0.80;;;;;;;;;;5018565;28;20041;-79
2024/01/01 07:01:52;;;;;;;5.38;1.10;;;;;;;;;;5026427;28;20029;-78
2024/01/01 07:04:18;;;;;;;5.22;0.85;;;;;;;;;;5004226;28;20064;-78
2024/01/01 07:06:45;;;;;;;9.52;1.50;;;;;;;;;;5018925;28;20223;-79
2024/01/01 07:09:11;;;;;;;6.72;1.00;;;;;;;;;;5016013;28;20033;-80
2024/01/01 07:11:37;;;;;;;4.35;0.68;;;;;;;;;;5016162;28;20247;-79
2024/01/01 07:14:03;;;;;;;4.50;0.80;;;;;;;;;;5028067;28;20295;-78
2024/01/01 07:16:29;;;;;;;3.22;0.50;;;;;;;;;;5053026;28;20064;-80
2024/01/01 07:18:56;;;;;;;1.10;0.65;;;;;;;;;;5026243;28;20117;-79
2024/01/01 07:21:22;;;;;;;6.82;1.05;;;;;;;;;;5030197;28;20048;-78
2024/01/01 07:23:48;;;;;;;1.83;0.93;;;;;;;;;;5018109;28;20107;-78
2024/01/01 07:26:14;;;;;;;1.90;0.60;;;;;;;;;;5024677;28;20041;-78
2024/01/01 07:28:42;;;;;;;1.65;0.55;;;;;;;;;;5025639;28;20112;-79
2024/01/01 07:31:08;;;;;;;2.17;0.70;;;;;;;;;;5027973;28;20022;-80
2024/01/01 07:33:34;;;;;;;1.15;0.40;;;;;;;;;;5025364;28;20511;-80
2024/01/01 07:36:00;;;;;;;9.73;0.68;;;;;;;;;;5027927;28;20025;-80
2024/01/01 07:38:26;;;;;;;3.75;0.45;;;;;;;;;;5026707;28;20025;-77
2024/01/01 07:40:52;;;;;;;1.23;0.63;;;;;;;;;;5027668;28;20104;-79
2024/01/01 07:43:18;;;;;;;2.75;0.73;;;;;;;;;;5026205;28;20120;-78
2024/01/01 07:45:44;;;;;;;0.60;0.32;;;;;;;;;;5028832;28;20026;-78
2024/01/01 07:48:10;;;;;;;9.35;0.57;;;;;;;;;;5018350;28;20119;-79
2024/01/01 07:50:36;;;;;;;6.03;0.60;;;;;;;;;;5024666;28;20057;-79
2024/01/01 07:53:02;;;;;;;2.28;0.65;;;;;;;;;;5019234;28;20836;-79
2024/01/01 07:55:28;;;;;;;2.88;0.85;;;;;;;;;;5030836;28;20498;-79
2024/01/01 07:57:54;;;;;;;0.60;0.60;;;;;;;;;;5016788;28;20298;-78
2024/01/01 08:00:21;;;;;;;2.72;0.55;;;6.60;99.90;;;;;;5025200;28;20022;-79
2024/01/01 08:02:51;;;;;;;4.82;0.98;;;;;;;;;;5025515;28;20056;-80
2024/01/01 08:05:17;;;;;;;2.33;0.65;;;;;;;;;;5026438;28;20480;-78
2024/01/01 08:07:47;;;;;;;3.30;1.10;;;;;;;;;;5022471;28;20033;-78
2024/01/01 08:10:14;;;;;;;6.80;0.80;;;;;;;;;;5030357;28;20053;-80
2024/01/01 08:12:40;;;;;;;3.83;0.52;;;;;;;;;;5022399;28;20061;-79
2024/01/01 08:15:06;;;;;;;1.55;1.10;;;;;;;;;;5027535;28;20060;-79
2024/01/01 08:17:32;;;;;;;3.40;0.55;;;;;;;;;;5025768;28;20412;-78
2024/01/01 08:19:58;;;;;;;2.83;0.75;;;;;;;;;;5021308;28;20026;-79
2024/01/01 08:22:24;;;;;;;4.35;0.50;;;;;;;;;;5027263;28;20488;-80
2024/01/01 08:24:50;;;;;;;7.07;0.80;;;;;;;;;;5022208;28;20522;-78
2024/01/01 08:27:16;;;;;;;1.27;0.73;;;;;;;;;;5027910;28;20384;-78
2024/01/01 08:29:42;;;;;;;1.17;0.22;;;;;;;;;;5021113;28;20033;-78
2024/01/01 08:32:08;;;;;;;4.80;0.57;;;;;;;;;;5022511;28;20036;-79
2024/01/01 08:34:34;;;;;;;2.67;0.52;;;;;;;;;;5026073;28;20022;-78
2024/01/01 08:37:04;;;;;;;8.40;1.40;;;;;;;;;;5026205;28;20030;-78
2024/01/01 08:39:31;;;;;;;2.45;0.40;;;;;;;;;;5019522;28;20021;-79
2024/01/01 08:41:57;;;;;;;6.38;0.32;;;;;;;;;;5023444;28;20028;-79
2024/01/01 08:44:23;;;;;;;1.63;0.50;;;;;;;;;;5010889;28;20053;-79
2024/01/01 08:46:49;;;;;;;2.55;0.57;;;;;;;;;;5055346;28;20033;-79
2024/01/01 08:49:16;;;;;;;4.10;0.57;;;;;;;;;;5024799;28;20067;-79
2024/01/01 08:51:41;;;;;;;14.35;0.60;;;;;;;;;;5008029;28;20042;-79
2024/01/01 08:54:07;;;;;;;1.08;0.25;;;;;;;;;;5022291;28;20469;-80
2024/01/01 08:56:34;;;;;;;1.42;0.50;;;;;;;;;;5025374;28;20435;-79
2024/01/01 08:59:00;;;;;;;1.98;0.60;;;;;;;;;;5025262;28;20028;-80
2024/01/01 09:01:26;;;;;;;2.60;0.43;;;;;;;;;;5019248;28;20526;-82
2024/01/01 09:03:52;;;;;;;8.70;0.65;;;;;;;;;;5018123;28;20124;-80
2024/01/01 09:06:18;;;;;;;2.58;0.60;;;;;;;;;;5019584;28;20039;-80
2024/01/01 09:08:44;;;;;;;2.00;0.47;;;;;;;;;;5017425;28;20037;-78
2024/01/01 09:11:11;;;;;;;8.00;1.10;;;;;;;;;;5024833;28;20037;-79
2024/01/01 09:13:36;;;;;;;2.05;0.70;;;;;;;;;;5024475;28;22240;-80
2024/01/01 09:16:02;;;;;;;8.55;0.70;;;;;;;;;;5024936;28;20104;-80
2024/01/01 09:18:29;;;;;;;4.45;0.43;;;;;;;;;;5022174;28;20021;-79
2024/01/01 09:20:55;;;;;;;3.42;0.63;;;;;;;;;;5022513;28;20411;-79
2024/01/01 09:23:21;;;;;;;1.65;0.40;;;;;;;;;;5019052;28;20029;-79
2024/01/01 09:25:47;;;;;;;12.85;1.23;;;;;;;;;;5023628;28;20026;-81
2024/01/01 09:28:14;;;;;;;3.08;0.80;;;;;;;;;;5028386;28;20033;-79
2024/01/01 09:30:40;;;;;;;4.85;0.85;;;;;;;;;;5028992;28;20032;-80
2024/01/01 09:33:07;;;;;;;4.35;0.85;;;;;;;;;;5023448;28;20017;-79
2024/01/01 09:35:33;;;;;;;2.38;0.30;;;;;;;;;;5020122;28;20059;-79
2024/01/01 09:38:02;;;;;;;3.65;0.17;;;;;;;;;;5019984;28;20022;-79
2024/01/01 09:40:28;;;;;;;3.60;0.52;;;;;;;;;;5025336;28;20033;-79
2024/01/01 09:42:54;;;;;;;3.60;0.30;;;;;;;;;;5022805;28;20088;-79
2024/01/01 09:45:20;;;;;;;1.80;0.57;;;7.10;99.90;;;;;;5022621;28;20029;-80
2024/01/01 09:47:46;;;;;;;3.22;1.13;;;;;;;;;;5018112;28;20048;-78
2024/01/01 09:50:12;;;;;;;1.33;0.40;;;;;;;;;;5013559;28;20041;-80
2024/01/01 09:52:38;;;;;;;2.38;0.88;;;;;;;;;;5021370;28;20037;-79
2024/01/01 09:55:05;;;;;;;4.28;0.20;;;;;;;;;;5038350;28;20115;-79
2024/01/01 09:57:31;;;;;;;1.40;0.40;;;;;;;;;;5023997;28;20522;-78
2024/01/01 09:59:59;;;;;;;2.50;0.77;;;;;;;;;;5026953;28;20267;-78
2024/01/01 10:02:26;;;;;;;4.25;0.47;;;;;;;;;;5027437;28;20032;-80
2024/01/01 10:04:52;;;;;;;2.65;2.05;;;;;;;;;;5014957;28;20136;-79
2024/01/01 10:07:28;;;;;;;5.78;0.60;;;;;;;;;;5023151;28;20124;-78
2024/01/01 10:09:54;;;;;;;2.00;1.15;;;;;;;;;;5052563;28;20892;-79
2024/01/01 10:12:23;;;;;;;4.43;0.25;;;;;;;;;;5017002;28;20060;-79
2024/01/01 10:14:50;;;;;;;4.00;0.47;;;;;;;;;;5020018;28;20022;-78
2024/01/01 10:17:21;;;;;;;4.45;0.40;;;8.20;99.90;;;;;;5024298;28;20037;-79
2024/01/01 10:19:56;;;;;;;8.27;0.90;;;;;;;;;;5017310;28;21871;-80
2024/01/01 10:22:23;;;;;;;4.03;0.73;;;;;;;;;;5015453;28;20026;-80
2024/01/01 10:24:53;;;;;;;7.60;0.52;;;;;;;;;;5025187;28;20383;-81
2024/01/01 10:27:20;;;;;;;7.15;0.55;;;;;;;;;;5023160;28;20041;-79
2024/01/01 10:29:49;;;;;;;3.80;0.75;;;;;;;;;;5042606;28;20025;-80
2024/01/01 10:32:18;;;;;;;0.65;0.40;;;;;;;;;;5024690;28;20034;-80
2024/01/01 10:34:48;;;;;;;1.25;0.47;;;;;;;;;;5025642;28;20116;-78
2024/01/01 10:37:20;;;;;;;2.95;0.22;;;;;;;;;;5020383;28;20130;-78
2024/01/01 10:39:48;;;;;;;4.03;0.38;;;;;;;;;;5020041;28;20044;-79
2024/01/01 10:42:14;;;;;;;7.07;0.60;;;;;;;;;;5019616;28;20037;-79
2024/01/01 10:44:40;;;;;;;3.78;0.70;;;;;;;;;;5022491;28;20557;-78
2024/01/01 10:47:08;;;;;;;7.32;0.70;;;;;;;;;;5025763;28;20064;-80
2024/01/01 10:49:34;;;;;;;3.83;0.45;;;;;;;;;;5021330;28;20036;-78
2024/01/01 10:51:59;;;;;;;5.68;0.30;;;;;;;;;;5015577;28;20034;-78
2024/01/01 10:54:26;;;;;;;5.85;0.60;;;;;;;;;;5019046;28;20523;-79
2024/01/01 10:57:02;;;;;;;2.45;0.45;;;8.20;99.90;;;;;;5023980;28;20033;-78
2024/01/01 10:59:34;;;;;;;2.50;0.45;;;;;;;;;;5022594;28;20500;-79
2024/01/01 11:02:01;;;;;;;2.78;0.35;;;;;;;;;;5021521;28;20022;-78
2024/01/01 11:04:26;;;;;;;1.33;0.70;;;;;;;;;;5023150;28;20053;-79
2024/01/01 11:06:53;;;;;;;2.53;0.40;;;;;;;;;;5023029;28;20069;-78
2024/01/01 11:09:19;;;;;;;0.80;0.28;;;;;;;;;;5019493;28;20049;-79
2024/01/01 11:11:48;;;;;;;3.30;0.35;;;;;;;;;;5018049;28;20033;-78
2024/01/01 11:14:24;;;;;;;5.03;0.80;;;;;;;;;;5024191;28;20415;-79
2024/01/01 11:16:52;;;;;;;5.47;0.30;;;8.20;99.90;;;;;;5026296;28;20057;-79
2024/01/01 11:19:37;;;;;;;3.90;0.50;;;;;;;;;;5024128;28;20030;-81
2024/01/01 11:22:28;;;;;;;2.30;0.50;;;;;;;;;;5024107;28;20033;-80
2024/01/01 11:24:54;;;;;;;0.43;0.30;;;;;;;;;;5013606;28;20411;-79
2024/01/01 11:27:26;;;;;;;5.28;0.40;;;;;;;;;;5027553;28;20458;-80
2024/01/01 11:29:52;;;;;;;12.18;0.75;;;;;;;;;;5017074;28;20299;-79
2024/01/01 11:32:19;;;;;;;1.80;0.90;;;;;;;;;;5020896;28;20053;-79
2024/01/01 11:34:59;;;;;;;5.15;0.98;;;;;;;;;;5024839;28;20079;-79
2024/01/01 11:37:25;;;;;;;6.03;0.50;;;;;;;;;;5017548;28;20028;-79
2024/01/01 11:40:02;;;;;;;5.75;0.52;;;;;;;;;;5023105;28;20496;-79
2024/01/01 11:42:28;;;;;;;7.95;0.60;;;;;;;;;;5054782;28;20667;-79
2024/01/01 11:45:12;;;;;;;7.63;0.75;;;;;;;;;;5023639;28;20021;-81
2024/01/01 11:47:39;;;;;;;3.70;0.98;;;;;;;;;;5021616;28;20033;-79
2024/01/01 11:50:06;;;;;;;1.08;0.50;;;;;;;;;;5018982;28;20084;-80
2024/01/01 11:52:32;;;;;;;9.90;1.23;;;;;;;;;;5016884;28;20021;-80
2024/01/01 11:54:58;;;;;;;4.32;1.00;;;;;;;;;;5018665;28;20496;-79
2024/01/01 11:57:24;;;;;;;2.85;0.60;;;;;;;;;;5026457;28;20021;-80
2024/01/01 11:59:51;;;;;;;10.40;1.10;;;;;;;;;;5018892;28;20453;-78
2024/01/01 12:02:17;;;;;;;1.35;0.32;;;;;;;;;;5024722;28;20052;-79
2024/01/01 12:04:45;;;;;;;3.13;0.47;;;;;;;;;;5028362;28;20022;-79
2024/01/01 12:07:10;;;;;;;10.63;1.08;;;;;;;;;;5024040;28;20053;-80
2024/01/01 12:09:36;;;;;;;1.27;0.43;;;;;;;;;;5021222;28;20084;-79
2024/01/01 12:12:09;;;;;;;7.25;0.75;;;;;;;;;;5024150;28;20026;-80
2024/01/01 12:14:35;;;;;;;4.38;0.70;;;;;;;;;;5021495;28;20076;-77
2024/01/01 12:17:04;;;;;;;5.22;1.25;;;;;;;;;;5025667;28;20500;-79
2024/01/01 12:19:31;;;;;;;4.45;0.68;;;;;;;;;;5027677;28;20113;-78
2024/01/01 12:21:57;;;;;;;6.75;1.05;;;;;;;;;;5023472;28;20149;-79
2024/01/01 12:24:23;;;;;;;5.20;0.70;;;;;;;;;;5024346;28;20100;-79
2024/01/01 12:26:54;;;;;;;7.47;0.65;;;;;;;;;;5023320;28;20071;-79
2024/01/01 12:29:22;;;;;;;4.68;0.73;;;;;;;;;;5020430;28;20381;-79
2024/01/01 12:31:49;;;;;;;11.45;0.77;;;;;;;;;;5025404;28;20499;-79
2024/01/01 12:34:16;;;;;;;6.25;0.90;;;;;;;;;;5022472;28;20460;-80
2024/01/01 12:36:44;;;;;;;4.53;1.17;;;;;;;;;;5025871;28;20025;-79
2024/01/01 12:39:10;;;;;;;1.67;0.70;;;;;;;;;;5027737;28;20426;-79
2024/01/01 12:41:37;;;;;;;6.75;0.80;;;;;;;;;;5019889;28;20018;-80
2024/01/01 12:44:03;;;;;;;4.40;0.82;;;;;;;;;;5021042;28;20034;-78
2024/01/01 12:46:29;;;;;;;2.08;0.50;;;;;;;;;;5052611;28;20036;-80
2024/01/01 12:48:55;;;;;;;5.50;0.82;;;;;;;;;;5027899;28;20029;-80
2024/01/01 12:51:22;;;;;;;8.02;0.77;;;;;;;;;;5026166;28;20103;-80
2024/01/01 12:53:49;;;;;;;7.60;0.60;;;8.40;99.90;;;;;;5024811;28;20029;-78
2024/01/01 12:56:15;;;;;;;1.40;0.50;;;;;;;;;;5031311;28;20059;-78
2024/01/01 12:58:41;;;;;;;9.82;1.50;;;;;;;;;;5031929;28;20105;-79
2024/01/01 13:01:10;;;;;;;8.82;1.58;;;;;;;;;;5026623;28;20574;-78
2024/01/01 13:03:36;;;;;;;2.58;0.52;;;;;;;;;;5026369;28;20052;-80
2024/01/01 13:06:02;;;;;;;6.22;0.90;;;;;;;;;;5058981;28;20037;-80
2024/01/01 13:08:28;;;;;;;9.77;0.98;;;;;;;;;;5041167;28;20072;-78
2024/01/01 13:10:54;;;;;;;5.57;0.70;;;;;;;;;;5026348;28;20433;-80
2024/01/01 13:13:20;;;;;;;2.58;0.90;;;;;;;;;;5030350;28;20034;-81
2024/01/01 13:15:47;;;;;;;4.13;0.50;;;;;;;;;;5021115;28;20029;-80
2024/01/01 13:18:13;;;;;;;5.55;0.63;;;;;;;;;;5025569;28;20041;-79
2024/01/01 13:20:41;;;;;;;5.97;1.45;;;;;;;;;;5028824;28;20017;-79
2024/01/01 13:23:08;;;;;;;2.25;0.70;;;;;;;;;;5023504;28;20017;-79
2024/01/01 13:25:34;;;;;;;9.13;1.35;;;;;;;;;;5025520;28;20108;-81
2024/01/01 13:28:00;;;;;;;10.85;1.08;;;;;;;;;;5024550;28;20214;-79
2024/01/01 13:30:26;;;;;;;2.35;0.63;;;;;;;;;;5027445;28;20268;-78
2024/01/01 13:32:52;;;;;;;3.08;0.60;;;;;;;;;;5017182;28;20437;-80
2024/01/01 13:35:19;;;;;;;3.20;0.57;;;;;;;;;;5026222;28;20041;-79
2024/01/01 13:37:44;;;;;;;4.85;0.38;;;;;;;;;;5022395;28;20024;-79
2024/01/01 13:40:11;;;;;;;3.40;0.73;;;8.60;99.90;;;;;;5024798;28;20030;-79
2024/01/01 13:42:37;;;;;;;4.78;0.45;;;;;;;;;;5020731;28;20025;-80
2024/01/01 13:45:04;;;;;;;2.58;0.68;;;;;;;;;;5020502;28;20049;-78
2024/01/01 13:47:29;;;;;;;6.32;0.80;;;;;;;;;;5020494;28;20037;-80
2024/01/01 13:49:55;;;;;;;2.85;0.70;;;;;;;;;;5019907;28;20471;-80
2024/01/01 13:52:21;;;;;;;11.10;1.02;;;;;;;;;;5020697;28;20048;-79
2024/01/01 13:54:47;;;;;;;4.82;1.08;;;;;;;;;;5052027;28;20029;-80
2024/01/01 13:57:13;;;;;;;8.65;1.05;;;;;;;;;;5026339;28;20033;-81
2024/01/01 13:59:39;;;;;;;5.85;0.55;;;;;;;;;;5017956;28;20028;-79
2024/01/01 14:02:07;;;;;;;2.45;0.70;;;8.50;99.90;;;;;;5027621;28;20120;-80
2024/01/01 14:04:33;;;;;;;5.80;1.00;;;;;;;;;;5023102;28;20032;-81
2024/01/01 14:07:00;;;;;;;6.03;0.85;;;;;;;;;;5018295;28;20030;-81
2024/01/01 14:09:26;;;;;;;3.47;0.70;;;;;;;;;;5018762;28;20510;-82
2024/01/01 14:11:52;;;;;;;4.07;0.38;;;;;;;;;;5027875;28;20049;-81
2024/01/01 14:14:18;;;;;;;2.30;0.57;;;;;;;;;;5025009;28;20037;-79
2024/01/01 14:16:45;;;;;;;6.05;1.15;;;;;;;;;;5025117;28;20025;-79
2024/01/01 14:19:11;;;;;;;6.78;0.70;;;;;;;;;;5021976;28;20476;-80
2024/01/01 14:21:37;;;;;;;14.13;0.75;;;;;;;;;;5023160;28;20026;-80
2024/01/01 14:24:03;;;;;;;6.75;0.77;;;;;;;;;;5024048;28;20044;-80
2024/01/01 14:26:30;;;;;;;9.75;1.02;;;;;;;;;;5026384;28;20048;-80
2024/01/01 14:28:55;;;;;;;6.13;0.88;;;;;;;;;;5021482;28;20518;-78
2024/01/01 14:31:22;;;;;;;5.40;0.73;;;;;;;;;;5013820;28;20078;-80
2024/01/01 14:33:48;;;;;;;3.47;0.60;;;;;;;;;;5019579;28;20128;-79
2024/01/01 14:36:15;;;;;;;9.80;1.58;;;;;;;;;;5063626;28;20095;-80